createdAt,value
2023-02-09T00:01:22.648Z,83.70
2023-02-09T00:03:30.236Z,84.20
2023-02-09T00:05:35.159Z,84.10
2023-02-09T00:07:40.831Z,84.70
2023-02-09T00:09:45.738Z,84.50
2023-02-09T00:12:04.206Z,84.30
2023-02-09T00:14:09.222Z,85.20
2023-02-09T00:16:14.975Z,86.20
2023-02-09T00:18:20.368Z,86.50
2023-02-09T00:20:28.372Z,86.60
2023-02-09T00:22:33.705Z,86.90
2023-02-09T00:24:39.502Z,86.60
2023-02-09T00:26:46.023Z,86.80
2023-02-09T00:28:51.143Z,86.70
2023-02-09T00:30:58.806Z,86.80
2023-02-09T00:33:04.227Z,86.80
2023-02-09T00:35:10.127Z,87.50
2023-02-09T00:37:17.692Z,87.60
2023-02-09T00:39:24.031Z,87.30
2023-02-09T00:41:42.111Z,87.60
2023-02-09T00:43:47.087Z,87.40
2023-02-09T00:45:52.780Z,87.90
2023-02-09T00:48:00.302Z,88.30
2023-02-09T00:50:06.823Z,87.20
2023-02-09T00:52:12.694Z,87.30
2023-02-09T00:54:20.972Z,87.40
2023-02-09T00:56:26.089Z,87.00
2023-02-09T00:58:31.561Z,85.70
2023-02-09T01:00:36.548Z,86.20
2023-02-09T01:02:42.581Z,86.30
2023-02-09T01:04:47.623Z,86.10
2023-02-09T01:06:54.243Z,85.20
2023-02-09T01:08:59.496Z,84.80
2023-02-09T01:11:14.767Z,83.10
2023-02-09T01:13:20.626Z,82.50
2023-02-09T01:15:25.839Z,82.30
2023-02-09T01:17:31.498Z,81.70
2023-02-09T01:19:36.977Z,80.80
2023-02-09T01:21:42.636Z,80.10
2023-02-09T01:23:49.916Z,79.80
2023-02-09T01:26:04.379Z,79.00
2023-02-09T01:28:14.801Z,79.00
2023-02-09T01:30:21.486Z,79.30
2023-02-09T01:32:26.440Z,79.90
2023-02-09T01:34:32.020Z,80.50
2023-02-09T01:36:37.492Z,80.80
2023-02-09T01:38:42.402Z,81.10
2023-02-09T01:40:50.477Z,80.80
2023-02-09T01:42:56.000Z,81.70
2023-02-09T01:45:37.278Z,81.90
2023-02-09T01:47:49.342Z,82.40
2023-02-09T01:49:54.693Z,82.50
2023-02-09T01:52:04.467Z,82.60
2023-02-09T01:54:14.995Z,83.00
2023-02-09T01:56:28.507Z,82.80
2023-02-09T01:58:34.661Z,82.70
2023-02-09T02:00:45.020Z,82.90
2023-02-09T02:02:55.222Z,82.90
2023-02-09T02:05:02.929Z,83.30
2023-02-09T02:07:14.310Z,83.30
2023-02-09T02:09:21.189Z,83.50
2023-02-09T02:11:30.736Z,82.60
2023-02-09T02:13:35.679Z,82.10
2023-02-09T02:15:52.440Z,81.90
2023-02-09T02:18:21.181Z,81.40
2023-02-09T02:21:10.917Z,81.20
2023-02-09T02:23:30.221Z,81.70
2023-02-09T02:26:18.229Z,80.60
2023-02-09T02:28:44.124Z,81.10
2023-02-09T02:31:24.055Z,80.90
2023-02-09T02:33:43.590Z,81.20
2023-02-09T02:35:56.640Z,81.30
2023-02-09T02:38:14.758Z,81.30
2023-02-09T02:40:32.030Z,81.90
2023-02-09T02:42:51.679Z,82.90
2023-02-09T02:45:05.824Z,83.10
2023-02-09T02:47:16.736Z,84.30
2023-02-09T02:49:30.604Z,84.00
2023-02-09T02:51:41.412Z,84.70
2023-02-09T02:53:52.249Z,84.10
2023-02-09T02:56:02.939Z,84.60
2023-02-09T02:58:14.843Z,84.90
2023-02-09T03:00:26.374Z,84.80
2023-02-09T03:02:36.360Z,85.00
2023-02-09T03:04:47.480Z,85.60
2023-02-09T03:06:52.822Z,85.00
2023-02-09T03:09:00.020Z,85.10
2023-02-09T03:11:05.786Z,84.90
2023-02-09T03:13:29.677Z,85.50
2023-02-09T03:15:46.773Z,85.20
2023-02-09T03:18:02.710Z,85.60
2023-02-09T03:20:19.755Z,85.50
2023-02-09T03:22:36.167Z,85.40
2023-02-09T03:24:49.171Z,85.60
2023-02-09T03:27:00.391Z,86.00
2023-02-09T03:29:06.765Z,86.60
2023-02-09T03:31:12.058Z,86.40
2023-02-09T03:33:22.256Z,87.20
2023-02-09T03:35:39.207Z,87.00
2023-02-09T03:37:44.179Z,87.20
2023-02-09T03:39:49.209Z,86.70
2023-02-09T03:41:55.206Z,86.70
2023-02-09T03:44:12.604Z,86.70
2023-02-09T03:46:18.317Z,86.50
2023-02-09T03:48:23.777Z,86.90
2023-02-09T03:50:32.318Z,87.00
2023-02-09T03:52:37.325Z,87.40
2023-02-09T03:54:43.695Z,87.40
2023-02-09T03:56:48.775Z,87.20
2023-02-09T03:58:54.783Z,87.30
2023-02-09T04:01:08.121Z,86.20
2023-02-09T04:03:13.088Z,85.50
2023-02-09T04:05:18.724Z,84.80
2023-02-09T04:07:27.286Z,84.40
2023-02-09T04:09:32.350Z,84.20
2023-02-09T04:11:37.798Z,85.60
2023-02-09T04:13:43.286Z,86.10
2023-02-09T04:15:48.217Z,86.80
2023-02-09T04:17:53.157Z,87.70
2023-02-09T04:19:59.040Z,87.70
2023-02-09T04:22:04.040Z,87.80
2023-02-09T04:24:13.835Z,88.00
2023-02-09T04:26:19.683Z,87.70
2023-02-09T04:28:24.698Z,87.90
2023-02-09T04:30:29.770Z,87.70
2023-02-09T04:32:35.869Z,88.00
2023-02-09T04:34:40.985Z,87.80
2023-02-09T04:36:46.699Z,87.50
2023-02-09T04:38:52.167Z,87.30
2023-02-09T04:41:03.962Z,87.40
2023-02-09T04:43:08.863Z,87.60
2023-02-09T04:45:15.054Z,87.80
2023-02-09T04:47:20.032Z,87.30
2023-02-09T04:49:25.554Z,88.00
2023-02-09T04:51:31.027Z,89.00
2023-02-09T04:53:36.024Z,89.00
2023-02-09T04:55:41.765Z,88.70
2023-02-09T04:58:02.773Z,88.70
2023-02-09T05:00:09.366Z,88.60
2023-02-09T05:02:15.407Z,88.30
2023-02-09T05:04:20.866Z,88.70
2023-02-09T05:06:25.870Z,89.10
2023-02-09T05:08:31.625Z,89.00
2023-02-09T05:10:37.543Z,89.50
2023-02-09T05:12:42.552Z,89.40
2023-02-09T05:14:50.124Z,89.60
2023-02-09T05:16:55.131Z,89.30
2023-02-09T05:19:00.105Z,89.20
2023-02-09T05:21:05.543Z,89.20
2023-02-09T05:23:11.407Z,89.40
2023-02-09T05:25:16.431Z,89.20
2023-02-09T05:27:21.520Z,89.50
2023-02-09T05:29:27.000Z,89.70
2023-02-09T05:31:34.598Z,89.60
2023-02-09T05:33:39.587Z,89.60
2023-02-09T05:35:44.936Z,89.70
2023-02-09T05:37:50.053Z,90.00
2023-02-09T05:39:55.365Z,89.90
2023-02-09T05:42:13.216Z,90.30
2023-02-09T05:44:18.507Z,90.50
2023-02-09T05:46:23.621Z,90.40
2023-02-09T05:48:33.244Z,90.10
2023-02-09T05:50:38.369Z,89.80
2023-02-09T05:52:47.692Z,90.30
2023-02-09T05:54:52.859Z,90.40
2023-02-09T05:56:57.777Z,90.90
2023-02-09T05:59:04.520Z,90.70
2023-02-09T06:01:10.760Z,90.50
2023-02-09T06:03:15.765Z,90.40
2023-02-09T06:05:24.247Z,90.80
2023-02-09T06:07:29.584Z,90.80
2023-02-09T06:09:34.650Z,90.60
2023-02-09T06:11:40.227Z,90.60
2023-02-09T06:13:46.171Z,90.40
2023-02-09T06:15:51.131Z,90.70
2023-02-09T06:17:56.848Z,90.80
2023-02-09T06:20:02.473Z,90.80
2023-02-09T06:22:10.122Z,90.90
2023-02-09T06:24:16.757Z,90.20
2023-02-09T06:26:23.136Z,90.00
2023-02-09T06:28:28.166Z,89.70
2023-02-09T06:30:33.736Z,88.80
2023-02-09T06:32:38.712Z,88.30
2023-02-09T06:34:44.275Z,88.00
2023-02-09T06:36:50.024Z,88.40
2023-02-09T06:38:57.619Z,88.20
2023-02-09T06:41:02.681Z,87.70
2023-02-09T06:43:07.760Z,87.70
2023-02-09T06:45:13.749Z,87.70
2023-02-09T06:47:19.191Z,87.50
2023-02-09T06:49:25.436Z,87.60
2023-02-09T06:51:31.528Z,87.60
2023-02-09T06:53:36.627Z,87.20
2023-02-09T06:55:44.191Z,86.80
2023-02-09T06:57:49.754Z,86.70
2023-02-09T06:59:56.532Z,86.70
2023-02-09T07:02:03.026Z,86.60
2023-02-09T07:04:09.676Z,86.40
2023-02-09T07:06:18.400Z,86.20
2023-02-09T07:08:24.761Z,86.30
2023-02-09T07:10:30.759Z,86.50
2023-02-09T07:12:40.901Z,86.10
2023-02-09T07:14:46.658Z,86.20
2023-02-09T07:16:52.749Z,86.80
2023-02-09T07:19:00.296Z,86.70
2023-02-09T07:21:12.065Z,86.70
2023-02-09T07:23:17.567Z,86.80
2023-02-09T07:25:22.591Z,87.00
2023-02-09T07:27:27.728Z,87.20
2023-02-09T07:29:36.296Z,87.30
2023-02-09T07:31:41.331Z,87.20
2023-02-09T07:33:46.981Z,87.10
2023-02-09T07:35:52.188Z,87.00
2023-02-09T07:37:57.361Z,86.80
2023-02-09T07:40:02.364Z,86.30
2023-02-09T07:42:07.614Z,85.60
2023-02-09T07:44:28.022Z,85.00
2023-02-09T07:46:35.919Z,84.40
2023-02-09T07:48:40.955Z,84.70
2023-02-09T07:50:51.821Z,84.50
2023-02-09T07:52:56.958Z,84.00
2023-02-09T07:55:01.908Z,82.80
2023-02-09T07:57:06.956Z,82.80
2023-02-09T07:59:14.202Z,82.50
2023-02-09T08:01:20.281Z,82.30
2023-02-09T08:03:27.840Z,82.30
2023-02-09T08:05:40.053Z,81.80
2023-02-09T08:07:45.929Z,81.90
2023-02-09T08:09:50.837Z,81.80
2023-02-09T08:12:00.004Z,81.40
2023-02-09T08:14:09.248Z,79.80
2023-02-09T08:16:20.388Z,79.20
2023-02-09T08:18:34.624Z,78.70
2023-02-09T08:20:39.779Z,78.40
2023-02-09T08:22:49.108Z,78.50
2023-02-09T08:24:54.606Z,77.90
2023-02-09T08:26:59.584Z,78.20
2023-02-09T08:29:05.088Z,78.40
2023-02-09T08:31:10.413Z,78.20
2023-02-09T08:33:15.478Z,77.30
2023-02-09T08:35:23.296Z,76.60
2023-02-09T08:37:28.362Z,77.30
2023-02-09T08:39:33.547Z,76.90
2023-02-09T08:41:39.072Z,76.30
2023-02-09T08:43:44.362Z,75.20
2023-02-09T08:45:49.837Z,75.70
2023-02-09T08:47:55.187Z,75.30
2023-02-09T08:50:00.396Z,75.50
2023-02-09T08:52:08.708Z,74.90
2023-02-09T08:54:13.723Z,75.80
2023-02-09T08:56:18.653Z,74.80
2023-02-09T08:58:24.563Z,76.30
2023-02-09T09:00:29.940Z,75.90
2023-02-09T09:02:36.110Z,76.50
2023-02-09T09:04:41.048Z,76.60
2023-02-09T09:06:48.494Z,76.50
2023-02-09T09:08:56.482Z,76.20
2023-02-09T09:11:02.680Z,74.90
2023-02-09T09:13:07.596Z,73.90
2023-02-09T09:15:13.253Z,74.00
2023-02-09T09:17:18.848Z,74.60
2023-02-09T09:19:23.804Z,74.30
2023-02-09T09:21:28.888Z,75.20
2023-02-09T09:23:34.996Z,73.40
2023-02-09T09:25:45.213Z,75.40
2023-02-09T09:27:50.583Z,73.70
2023-02-09T09:29:55.580Z,73.10
2023-02-09T09:32:00.844Z,73.90
2023-02-09T09:34:06.684Z,72.70
2023-02-09T09:36:15.570Z,71.70
2023-02-09T09:38:20.861Z,71.50
2023-02-09T09:40:29.981Z,71.70
2023-02-09T09:42:43.460Z,70.70
2023-02-09T09:44:48.693Z,71.40
2023-02-09T09:47:01.182Z,69.90
2023-02-09T09:49:07.426Z,70.10
2023-02-09T09:51:18.151Z,69.80
2023-02-09T09:53:33.370Z,69.30
2023-02-09T09:55:40.387Z,70.70
2023-02-09T09:57:48.716Z,68.50
2023-02-09T09:59:56.297Z,68.20
2023-02-09T10:02:14.803Z,69.20
2023-02-09T10:04:20.871Z,69.00
2023-02-09T10:06:26.826Z,67.80
2023-02-09T10:08:37.808Z,68.40
2023-02-09T10:10:49.911Z,66.90
2023-02-09T10:12:58.553Z,67.90
2023-02-09T10:15:28.244Z,67.40
2023-02-09T10:17:33.186Z,67.30
2023-02-09T10:19:38.165Z,67.50
2023-02-09T10:21:43.121Z,66.60
2023-02-09T10:23:50.895Z,66.70
2023-02-09T10:26:06.318Z,66.60
2023-02-09T10:28:23.337Z,66.80
2023-02-09T10:30:31.618Z,66.10
2023-02-09T10:32:43.497Z,66.10
2023-02-09T10:34:52.674Z,65.70
2023-02-09T10:37:15.680Z,64.10
2023-02-09T10:39:24.330Z,65.30
2023-02-09T10:41:29.516Z,64.40
2023-02-09T10:43:38.327Z,64.50
2023-02-09T10:45:47.302Z,62.80
2023-02-09T10:48:02.480Z,63.40
2023-02-09T10:50:21.680Z,63.20
2023-02-09T10:52:29.442Z,64.20
2023-02-09T10:54:34.435Z,62.30
2023-02-09T10:56:49.160Z,62.50
2023-02-09T10:59:04.087Z,62.90
2023-02-09T11:01:20.779Z,64.50
2023-02-09T11:03:28.075Z,60.70
2023-02-09T11:05:37.358Z,61.10
2023-02-09T11:07:44.765Z,61.00
2023-02-09T11:09:53.199Z,60.60
2023-02-09T11:11:58.510Z,62.50
2023-02-09T11:14:12.651Z,60.90
2023-02-09T11:16:39.257Z,60.20
2023-02-09T11:18:48.602Z,62.60
2023-02-09T11:20:58.284Z,59.00
2023-02-09T11:23:35.745Z,60.30
2023-02-09T11:25:48.397Z,60.00
2023-02-09T11:28:21.171Z,60.80
2023-02-09T11:30:51.190Z,61.60
2023-02-09T11:32:59.938Z,59.50
2023-02-09T11:35:12.867Z,58.60
2023-02-09T11:37:32.244Z,60.70
2023-02-09T11:39:47.151Z,58.10
2023-02-09T11:42:12.725Z,60.60
2023-02-09T11:44:29.288Z,60.10
2023-02-09T11:46:39.499Z,57.40
2023-02-09T11:48:49.792Z,59.30
2023-02-09T11:51:06.850Z,57.20
2023-02-09T11:53:24.093Z,58.70
2023-02-09T11:55:34.991Z,60.60
2023-02-09T11:57:47.845Z,57.60
2023-02-09T12:00:00.889Z,58.20
2023-02-09T12:02:39.644Z,58.20
2023-02-09T12:04:50.651Z,57.80
2023-02-09T12:06:59.812Z,58.50
2023-02-09T12:09:18.152Z,57.20
2023-02-09T12:11:39.635Z,58.10
2023-02-09T12:14:19.296Z,55.90
2023-02-09T12:16:31.103Z,57.70
2023-02-09T12:18:39.885Z,57.20
2023-02-09T12:20:55.829Z,58.10
2023-02-09T12:23:08.392Z,56.50
2023-02-09T12:25:40.057Z,58.10
2023-02-09T12:27:47.117Z,58.40
2023-02-09T12:29:52.083Z,59.10
2023-02-09T12:32:26.672Z,54.60
2023-02-09T12:34:43.593Z,58.30
2023-02-09T12:37:18.661Z,58.10
2023-02-09T12:39:28.133Z,57.50
2023-02-09T12:41:54.643Z,59.30
2023-02-09T12:44:42.290Z,57.90
2023-02-09T12:46:55.733Z,58.80
2023-02-09T12:49:20.930Z,57.10
2023-02-09T12:51:53.417Z,57.10
2023-02-09T12:53:58.988Z,56.00
2023-02-09T12:56:25.127Z,57.20
2023-02-09T12:58:42.781Z,55.90
2023-02-09T13:01:00.226Z,56.30
2023-02-09T13:03:17.012Z,57.50
2023-02-09T13:05:26.572Z,55.60
2023-02-09T13:07:47.221Z,56.60
2023-02-09T13:09:54.873Z,53.70
2023-02-09T13:12:08.256Z,54.90
2023-02-09T13:14:17.428Z,53.80
2023-02-09T13:17:12.475Z,50.40
2023-02-09T13:19:33.805Z,54.40
2023-02-09T13:22:01.461Z,50.20
2023-02-09T13:24:12.118Z,49.70
2023-02-09T13:26:24.478Z,48.20
2023-02-09T13:28:29.469Z,48.90
2023-02-09T13:30:36.059Z,48.10
2023-02-09T13:32:57.473Z,49.10
2023-02-09T13:35:08.599Z,47.30
2023-02-09T13:37:29.913Z,45.40
2023-02-09T13:39:39.710Z,46.30
2023-02-09T13:41:45.647Z,45.20
2023-02-09T13:43:52.036Z,42.20
2023-02-09T13:45:59.634Z,44.50
2023-02-09T13:48:24.193Z,42.70
2023-02-09T13:50:32.034Z,43.90
2023-02-09T13:52:40.165Z,43.40
2023-02-09T13:54:46.111Z,42.00
2023-02-09T13:56:52.083Z,43.80
2023-02-09T13:58:58.324Z,43.60
2023-02-09T14:01:07.975Z,42.80
2023-02-09T14:03:22.809Z,42.10
2023-02-09T14:05:36.672Z,44.30
2023-02-09T14:07:41.811Z,44.30
2023-02-09T14:09:52.453Z,44.40
2023-02-09T14:12:02.322Z,43.30
2023-02-09T14:14:11.860Z,41.30
2023-02-09T14:16:18.708Z,42.60
2023-02-09T14:18:45.457Z,42.70
2023-02-09T14:21:04.182Z,42.90
2023-02-09T14:23:18.548Z,42.20
2023-02-09T14:25:27.480Z,42.00
2023-02-09T14:27:36.743Z,42.20
2023-02-09T14:29:50.120Z,44.20
2023-02-09T14:31:57.498Z,43.70
2023-02-09T14:34:05.823Z,44.40
2023-02-09T14:36:27.391Z,42.80
2023-02-09T14:38:42.665Z,42.20
2023-02-09T14:40:48.777Z,43.60
2023-02-09T14:43:03.024Z,43.70
2023-02-09T14:45:32.665Z,43.60
2023-02-09T14:47:44.545Z,42.20
2023-02-09T14:49:52.073Z,43.00
2023-02-09T14:52:10.075Z,42.90
2023-02-09T14:54:29.270Z,43.80
2023-02-09T14:56:35.452Z,42.90
2023-02-09T14:58:40.390Z,43.50
2023-02-09T15:00:46.403Z,45.90
2023-02-09T15:02:53.601Z,45.60
2023-02-09T15:05:01.961Z,46.40
2023-02-09T15:07:08.481Z,45.90
2023-02-09T15:09:20.238Z,43.90
2023-02-09T15:11:42.509Z,45.00
2023-02-09T15:13:51.092Z,45.80
2023-02-09T15:15:57.348Z,44.90
2023-02-09T15:18:03.611Z,44.20
2023-02-09T15:20:13.570Z,45.80
2023-02-09T15:22:19.273Z,45.90
2023-02-09T15:24:24.227Z,46.90
2023-02-09T15:26:30.444Z,46.50
2023-02-09T15:28:35.491Z,46.80
2023-02-09T15:30:41.081Z,48.30
2023-02-09T15:32:46.538Z,48.20
2023-02-09T15:34:52.996Z,48.20
2023-02-09T15:37:01.691Z,49.50
2023-02-09T15:39:15.572Z,49.30
2023-02-09T15:41:35.830Z,50.40
2023-02-09T15:43:53.914Z,50.00
2023-02-09T15:46:11.607Z,50.60
2023-02-09T15:48:18.061Z,53.00
2023-02-09T15:50:23.024Z,53.20
2023-02-09T15:52:31.410Z,53.00
2023-02-09T15:54:37.139Z,53.40
2023-02-09T15:56:44.170Z,53.80
2023-02-09T15:58:52.492Z,54.90
2023-02-09T16:00:57.539Z,54.70
2023-02-09T16:03:04.211Z,56.60
2023-02-09T16:05:11.990Z,58.10
2023-02-09T16:07:25.422Z,57.70
2023-02-09T16:09:34.787Z,58.40
2023-02-09T16:11:43.555Z,59.80
2023-02-09T16:13:48.603Z,60.50
2023-02-09T16:15:56.899Z,61.30
2023-02-09T16:18:05.645Z,61.60
2023-02-09T16:20:12.268Z,61.90
2023-02-09T16:22:22.681Z,63.20
2023-02-09T16:24:37.186Z,64.10
2023-02-09T16:26:42.151Z,64.90
2023-02-09T16:28:47.245Z,66.30
2023-02-09T16:30:57.721Z,66.50
2023-02-09T16:33:02.822Z,67.90
2023-02-09T16:35:16.770Z,68.40
2023-02-09T16:37:31.410Z,66.90
2023-02-09T16:39:38.950Z,66.30
2023-02-09T16:41:50.766Z,66.70
2023-02-09T16:43:57.043Z,67.50
2023-02-09T16:46:06.107Z,70.40
2023-02-09T16:48:23.111Z,71.10
2023-02-09T16:50:33.208Z,71.80
2023-02-09T16:52:39.346Z,71.60
2023-02-09T16:54:51.451Z,71.90
2023-02-09T16:56:56.648Z,71.70
2023-02-09T16:59:01.601Z,73.70
2023-02-09T17:01:07.449Z,73.20
2023-02-09T17:03:19.823Z,74.50
2023-02-09T17:05:29.776Z,74.90
2023-02-09T17:07:53.282Z,74.50
2023-02-09T17:10:02.102Z,75.60
2023-02-09T17:12:07.503Z,75.30
2023-02-09T17:14:13.342Z,75.30
2023-02-09T17:16:22.545Z,75.40
2023-02-09T17:18:31.726Z,76.10
2023-02-09T17:20:43.709Z,77.00
2023-02-09T17:22:52.028Z,75.80
2023-02-09T17:24:56.978Z,76.50
2023-02-09T17:27:04.515Z,77.70
2023-02-09T17:29:09.602Z,76.40
2023-02-09T17:31:20.610Z,77.70
2023-02-09T17:33:29.023Z,78.60
2023-02-09T17:36:10.025Z,78.40
2023-02-09T17:38:04.796Z,78.90
2023-02-09T17:40:10.962Z,78.10
2023-02-09T17:42:24.900Z,78.20
2023-02-09T17:44:45.442Z,78.80
2023-02-09T17:46:52.140Z,79.70
2023-02-09T17:48:57.123Z,79.90
2023-02-09T17:51:03.036Z,80.30
2023-02-09T17:53:15.344Z,80.30
2023-02-09T17:55:25.546Z,80.60
2023-02-09T17:57:33.097Z,81.20
2023-02-09T17:59:38.104Z,81.40
2023-02-09T18:01:45.809Z,80.90
2023-02-09T18:03:51.750Z,81.10
2023-02-09T18:06:03.058Z,81.50
2023-02-09T18:08:08.028Z,81.20
2023-02-09T18:10:13.276Z,82.20
2023-02-09T18:12:23.256Z,81.50
2023-02-09T18:14:33.837Z,81.30
2023-02-09T18:16:39.214Z,82.20
2023-02-09T18:18:45.031Z,82.30
2023-02-09T18:20:51.112Z,81.90
2023-02-09T18:22:56.115Z,81.70
2023-02-09T18:25:01.464Z,82.30
2023-02-09T18:27:08.431Z,82.60
2023-02-09T18:29:13.456Z,81.80
2023-02-09T18:31:21.996Z,81.70
2023-02-09T18:33:27.067Z,81.30
2023-02-09T18:35:38.217Z,80.90
2023-02-09T18:37:47.186Z,80.70
2023-02-09T18:39:52.187Z,80.70
2023-02-09T18:41:57.102Z,80.70
2023-02-09T18:44:02.840Z,80.80
2023-02-09T18:46:08.541Z,80.70
2023-02-09T18:48:16.251Z,80.00
2023-02-09T18:50:23.776Z,79.80
2023-02-09T18:52:28.985Z,80.60
2023-02-09T18:54:35.143Z,80.80
2023-02-09T18:56:40.127Z,81.00
2023-02-09T18:58:45.044Z,80.30
2023-02-09T19:00:52.917Z,80.90
2023-02-09T19:03:00.534Z,81.30
2023-02-09T19:05:10.035Z,81.90
2023-02-09T19:07:16.421Z,81.70
2023-02-09T19:09:21.654Z,81.70
2023-02-09T19:11:26.695Z,82.00
2023-02-09T19:13:34.088Z,82.30
2023-02-09T19:15:41.409Z,81.90
2023-02-09T19:17:47.859Z,82.40
2023-02-09T19:19:53.651Z,82.50
2023-02-09T19:22:01.246Z,82.30
2023-02-09T19:24:06.986Z,82.50
2023-02-09T19:26:13.568Z,83.30
2023-02-09T19:28:18.635Z,83.70
2023-02-09T19:30:28.982Z,83.50
2023-02-09T19:32:34.266Z,83.60
2023-02-09T19:34:43.137Z,83.50
2023-02-09T19:36:48.668Z,83.60
2023-02-09T19:38:56.316Z,84.00
2023-02-09T19:41:10.772Z,84.40
2023-02-09T19:43:16.348Z,84.10
2023-02-09T19:45:21.851Z,84.50
2023-02-09T19:47:28.393Z,85.00
2023-02-09T19:49:34.453Z,85.00
2023-02-09T19:51:40.256Z,85.40
2023-02-09T19:53:45.313Z,85.50
2023-02-09T19:55:55.040Z,85.80
2023-02-09T19:58:00.155Z,86.00
2023-02-09T20:00:06.245Z,86.10
2023-02-09T20:02:14.884Z,86.20
2023-02-09T20:04:19.842Z,86.10
2023-02-09T20:06:26.494Z,86.10
2023-02-09T20:08:31.428Z,86.60
2023-02-09T20:10:36.853Z,86.40
2023-02-09T20:15:10.931Z,86.90
2023-02-09T20:17:15.822Z,87.30
2023-02-09T20:19:20.743Z,87.40
2023-02-09T20:21:26.685Z,87.90
2023-02-09T20:23:31.622Z,87.70
2023-02-09T20:25:36.772Z,87.50
2023-02-09T20:27:44.365Z,87.60
2023-02-09T20:29:49.454Z,87.70
2023-02-09T20:31:55.167Z,87.60
2023-02-09T20:34:00.399Z,87.70
2023-02-09T20:36:08.614Z,87.70
2023-02-09T20:38:14.560Z,87.30
2023-02-09T20:40:20.236Z,87.20
2023-02-09T20:42:37.907Z,87.20
2023-02-09T20:44:58.379Z,87.40
2023-02-09T20:47:03.326Z,87.50
2023-02-09T20:49:09.221Z,87.20
2023-02-09T20:51:14.317Z,87.70
2023-02-09T20:53:19.730Z,88.10
2023-02-09T20:55:24.637Z,88.00
2023-02-09T20:57:31.987Z,88.20
2023-02-09T20:59:37.020Z,87.80
2023-02-09T21:01:46.014Z,88.30
2023-02-09T21:03:50.986Z,88.80
2023-02-09T21:05:55.892Z,88.40
2023-02-09T21:08:04.262Z,88.70
2023-02-09T21:10:12.954Z,89.10
2023-02-09T21:12:18.061Z,88.70
2023-02-09T21:14:32.289Z,89.00
2023-02-09T21:16:46.078Z,89.00
2023-02-09T21:18:51.061Z,89.00
2023-02-09T21:20:56.327Z,89.10
2023-02-09T21:23:01.228Z,89.40
2023-02-09T21:25:06.183Z,88.90
2023-02-09T21:27:11.760Z,89.20
2023-02-09T21:29:17.353Z,89.20
2023-02-09T21:31:25.069Z,89.30
2023-02-09T21:33:32.682Z,89.60
2023-02-09T21:35:41.113Z,89.90
2023-02-09T21:37:46.084Z,90.00
2023-02-09T21:39:51.136Z,89.90
2023-02-09T21:42:09.430Z,90.00
2023-02-09T21:44:15.158Z,90.20
2023-02-09T21:46:20.683Z,90.00
2023-02-09T21:48:26.117Z,90.50
2023-02-09T21:50:34.397Z,90.30
2023-02-09T21:52:39.388Z,90.20
2023-02-09T21:54:44.346Z,90.80
2023-02-09T21:56:49.333Z,90.30
2023-02-09T21:58:54.345Z,90.40
2023-02-09T22:01:00.858Z,91.00
2023-02-09T22:03:05.845Z,90.50
2023-02-09T22:05:11.688Z,90.00
2023-02-09T22:07:19.493Z,90.30
2023-02-09T22:09:25.180Z,90.20
2023-02-09T22:11:30.202Z,90.50
2023-02-09T22:13:36.160Z,90.80
2023-02-09T22:15:43.471Z,90.70
2023-02-09T22:17:49.284Z,90.00
2023-02-09T22:19:54.689Z,90.10
2023-02-09T22:22:01.139Z,90.50
2023-02-09T22:24:10.513Z,90.10
2023-02-09T22:26:16.409Z,90.20
2023-02-09T22:28:21.603Z,90.00
2023-02-09T22:30:26.629Z,89.70
2023-02-09T22:32:34.042Z,90.50
2023-02-09T22:34:39.167Z,90.70
2023-02-09T22:36:45.332Z,90.80
2023-02-09T22:38:53.578Z,91.10
2023-02-09T22:41:07.127Z,90.80
2023-02-09T22:43:12.049Z,90.70
2023-02-09T22:45:17.268Z,90.40
2023-02-09T22:47:22.192Z,90.60
2023-02-09T22:49:27.134Z,90.80
2023-02-09T22:51:34.586Z,91.20
2023-02-09T22:53:39.533Z,90.90
2023-02-09T22:55:46.435Z,90.40
2023-02-09T22:57:54.179Z,90.50
2023-02-09T22:59:59.098Z,91.20
2023-02-09T23:02:04.036Z,91.20
2023-02-09T23:04:09.085Z,91.30
2023-02-09T23:06:23.389Z,91.10
2023-02-09T23:08:28.399Z,91.00
2023-02-09T23:10:33.995Z,91.50
2023-02-09T23:12:38.955Z,91.30
2023-02-09T23:14:46.685Z,91.20
2023-02-09T23:16:51.672Z,90.90
2023-02-09T23:18:58.786Z,90.90
2023-02-09T23:21:04.819Z,91.20
2023-02-09T23:23:11.463Z,91.00
2023-02-09T23:25:16.545Z,91.20
2023-02-09T23:27:21.522Z,91.00
2023-02-09T23:29:26.900Z,90.90
2023-02-09T23:31:34.936Z,91.10
2023-02-09T23:33:40.397Z,91.20
2023-02-09T23:35:48.625Z,91.00
2023-02-09T23:37:53.753Z,90.90
2023-02-09T23:39:58.660Z,90.80
2023-02-09T23:42:03.563Z,91.30
2023-02-09T23:44:08.580Z,91.20
2023-02-09T23:46:19.545Z,91.20
2023-02-09T23:48:27.097Z,91.00
2023-02-09T23:50:32.041Z,90.80
2023-02-09T23:52:36.990Z,90.70
2023-02-09T23:54:42.082Z,91.00
2023-02-09T23:56:47.094Z,91.20
2023-02-09T23:58:54.430Z,91.30
